Terminal Aerodrome Forecast
Issued by NWS

Home | Current Version | Previous Version | Text Only | Print | Product List | Glossary On
Versions: 1 2 3 4 5 6 7 8 9 10 11 12 13 14 15 16
000
FTUS46 KPDT 231720
TAFRDM
TAF
KRDM 231720Z 2318/2418 35006KT P6SM BKN090 BKN150
     FM232200 31008KT P6SM VCSH SCT060 OVC090
     FM240100 29009KT P6SM -SHRA VCTS BKN060CB OVC090
     FM240600 23004KT P6SM -SHRA BKN060 OVC090
     FM241500 VRB03KT P6SM SCT060 SCT090=

USA.gov is the U.S. government's official web portal to all federal, state and local government web resources and services.